Higman Mariner — WDI3837 — position and weather

sailwx.info

Track history (hours):
 
Tides and Currents Weather Stations Pressure Air Temp Water Temp Dewpoint Dewpoint Depression Visibility Wind Speed Wind Dir Waves Ship Positions

Higman Mariner

Owner: Higman Barge Lines, Inc., Orange, TX. More information available from US FCC via Universal Licensing System and Coast Guard Vessel Documentation Center.

Last reported at 2018-Jun-14 22:15 UTC. Time now 2018-Jun-25 04:26 UTC.
Position N 29°33' W 090°24'.
Warning: this ship's position is 10 days out of date.

Length 205 m; draft 2.6 m.

Type: . MMSI: 367692430.

Date/timePositionNaut miles runAvg speedWind from/ knotsBaromVisibWave heightAir tempDewpointWater temp
2018-Jun-14 22:15N 29°33' W 090°24'3 6.3
2018-Jun-14 21:47N 29°33' W 090°28'2 6.5
2018-Jun-14 21:30N 29°34' W 090°30'3 6.2
2018-Jun-14 21:00N 29°34' W 090°33'3 5.4
2018-Jun-14 20:30N 29°35' W 090°36'3 5.6
2018-Jun-14 19:58N 29°36' W 090°39'2 4.5
2018-Jun-14 19:28N 29°37' W 090°42'6 2.6
2018-Jun-14 17:11N 29°32' W 090°46'1 6.9
2018-Jun-14 17:00N 29°32' W 090°47'4 7.1
2018-Jun-14 16:30N 29°32' W 090°52'4 7.1
2018-Jun-14 16:00N 29°34' W 090°55'54 4.3
2018-Jun-14 03:18N 29°51' W 091°55'2 5.3
2018-Jun-14 02:52N 29°50' W 091°57'2 5.1
2018-Jun-14 02:28N 29°50' W 091°60'3 5.8
2018-Jun-14 02:00N 29°49' W 092°02'3 5.3
2018-Jun-14 01:25N 29°48' W 092°06'10 3.8
2018-Jun-13 22:44N 29°49' W 092°18'1 4.7
2018-Jun-13 22:29N 29°50' W 092°18'3 5.0
2018-Jun-13 21:58N 29°51' W 092°21'2 4.5
2018-Jun-13 21:30N 29°53' W 092°23'2 4.6
2018-Jun-13 21:00N 29°53' W 092°25'3 5.1
2018-Jun-13 20:27N 29°54' W 092°29'30 4.3
2018-Jun-13 13:36N 29°56' W 093°03'1 4.2
2018-Jun-13 13:27N 29°56' W 093°04'2 3.7
2018-Jun-13 13:00N 29°56' W 093°05'2 4.7
2018-Jun-13 12:30N 29°56' W 093°08'2 4.2
2018-Jun-13 12:00N 29°57' W 093°10'2 3.4
2018-Jun-13 11:26N 29°58' W 093°12'2 3.8
2018-Jun-13 11:00N 29°60' W 093°13'12 0.3
2018-Jun-11 18:22N 30°11' W 093°19'0 0.0
2018-Jun-11 18:01N 30°11' W 093°19'0 0.0
2018-Jun-11 17:30N 30°11' W 093°19'0 0.0
2018-Jun-11 17:01N 30°11' W 093°19'0 0.0
2018-Jun-11 16:31N 30°11' W 093°19'0 0.0
2018-Jun-11 16:00N 30°11' W 093°19'0 0.1
2018-Jun-11 15:31N 30°11' W 093°19'0 1.0
2018-Jun-11 15:01N 30°11' W 093°19'3 6.9
2018-Jun-11 14:31N 30°07' W 093°20'2 4.4
2018-Jun-11 14:01N 30°05' W 093°20'0 0.0
2018-Jun-11 13:31N 30°05' W 093°20'0 0.0
2018-Jun-11 13:01N 30°05' W 093°20'0 0.0
2018-Jun-11 12:31N 30°05' W 093°20'0 0.0
2018-Jun-11 12:01N 30°05' W 093°20'0 0.0
2018-Jun-11 11:31N 30°05' W 093°20'0 0.0
2018-Jun-11 11:01N 30°05' W 093°20'0 0.0
2018-Jun-11 10:30N 30°05' W 093°20'0 0.0
2018-Jun-11 09:56N 30°05' W 093°20'0 0.0
2018-Jun-11 09:31N 30°05' W 093°20'0 0.0
2018-Jun-11 09:01N 30°05' W 093°20'0 0.0
2018-Jun-11 08:31N 30°05' W 093°20'0 0.0
2018-Jun-11 08:01N 30°05' W 093°20'0 0.0
2018-Jun-11 07:31N 30°05' W 093°20'0 0.0
2018-Jun-11 07:01N 30°05' W 093°20'0 0.0
2018-Jun-11 06:31N 30°05' W 093°20'0 0.0
2018-Jun-11 06:00N 30°05' W 093°20'0 0.0
2018-Jun-11 05:31N 30°05' W 093°20'0 0.0
2018-Jun-11 04:59N 30°05' W 093°20'0 0.0
2018-Jun-11 04:31N 30°05' W 093°20'0 0.0
2018-Jun-11 04:01N 30°05' W 093°20'0 0.0
2018-Jun-11 03:30N 30°05' W 093°20'0 0.0
2018-Jun-11 02:57N 30°05' W 093°20'0 0.0
2018-Jun-11 02:29N 30°05' W 093°20'0 0.0
2018-Jun-11 02:00N 30°05' W 093°20'0 0.0
2018-Jun-11 01:31N 30°05' W 093°20'0 0.0
2018-Jun-11 01:01N 30°05' W 093°20'0 0.0
2018-Jun-11 00:31N 30°05' W 093°20'0 0.0
2018-Jun-11 00:01N 30°05' W 093°20'0 0.0
2018-Jun-10 23:29N 30°05' W 093°20'0 0.2
2018-Jun-10 22:59N 30°05' W 093°20'0 0.2
2018-Jun-10 22:31N 30°05' W 093°20'0 0.1
2018-Jun-10 22:00N 30°05' W 093°20'0 0.0
2018-Jun-10 21:29N 30°05' W 093°20'0 0.0
2018-Jun-10 21:00N 30°05' W 093°20'0 0.0
2018-Jun-10 20:31N 30°05' W 093°20'0 0.0
2018-Jun-10 20:01N 30°05' W 093°20'0 0.0
2018-Jun-10 19:31N 30°05' W 093°20'0 0.5
2018-Jun-10 19:01N 30°05' W 093°20'0 0.0
2018-Jun-10 18:31N 30°05' W 093°20'0 0.5
2018-Jun-10 18:01N 30°05' W 093°20'0 0.0
2018-Jun-10 17:31N 30°05' W 093°20'0 0.0
2018-Jun-10 17:01N 30°05' W 093°20'0 0.0
2018-Jun-10 16:31N 30°05' W 093°20'0 0.0
2018-Jun-10 16:01N 30°05' W 093°20'0 0.0
2018-Jun-10 15:31N 30°05' W 093°20'0 0.0
2018-Jun-10 15:01N 30°05' W 093°20'0 0.0
2018-Jun-10 14:00N 30°05' W 093°20'0 0.0
2018-Jun-10 13:29N 30°05' W 093°20'0 0.0
2018-Jun-10 13:01N 30°05' W 093°20'0 0.0
2018-Jun-10 12:31N 30°05' W 093°20'0 0.0
2018-Jun-10 11:59N 30°05' W 093°20'0 0.0
2018-Jun-10 11:30N 30°05' W 093°20'0 0.0
2018-Jun-10 11:01N 30°05' W 093°20'0 0.0
2018-Jun-10 10:30N 30°05' W 093°20'0 0.0
2018-Jun-10 10:00N 30°05' W 093°20'0 0.0
2018-Jun-10 09:31N 30°05' W 093°20'0 0.0
2018-Jun-10 09:00N 30°05' W 093°20'0 0.0
2018-Jun-10 08:30N 30°05' W 093°20'0 0.0
2018-Jun-10 08:01N 30°05' W 093°20'0 0.0
2018-Jun-10 07:31N 30°05' W 093°20'0 0.0
2018-Jun-10 07:00N 30°05' W 093°20'0 0.0
2018-Jun-10 06:30N 30°05' W 093°20'0 0.0
2018-Jun-10 06:01N 30°05' W 093°20'0 0.0
2018-Jun-10 05:31N 30°05' W 093°20'0 0.0
2018-Jun-10 05:01N 30°05' W 093°20'0 0.0
2018-Jun-10 04:30N 30°05' W 093°20'0 0.0
2018-Jun-10 04:00N 30°05' W 093°20'0 0.0
2018-Jun-10 03:30N 30°05' W 093°20'0 0.0
2018-Jun-10 03:00N 30°05' W 093°20'0 0.0
2018-Jun-10 02:31N 30°05' W 093°20'0 0.0
2018-Jun-10 02:01N 30°05' W 093°20'0 0.0
2018-Jun-10 01:31N 30°05' W 093°20'0 0.0
2018-Jun-10 01:01N 30°05' W 093°20'0 0.0
2018-Jun-10 00:30N 30°05' W 093°20'0 0.0
2018-Jun-10 00:01N 30°05' W 093°20'0 0.0
2018-Jun-09 23:29N 30°05' W 093°20'0 0.0
2018-Jun-09 23:00N 30°05' W 093°20'0 0.0
2018-Jun-09 22:30N 30°05' W 093°20'0 0.0
2018-Jun-09 22:01N 30°05' W 093°20'0 0.0
2018-Jun-09 21:31N 30°05' W 093°20'0 0.0
2018-Jun-09 21:01N 30°05' W 093°20'0 0.0
2018-Jun-09 20:30N 30°05' W 093°20'0 0.0
2018-Jun-09 20:01N 30°05' W 093°20'0 0.0
2018-Jun-09 19:30N 30°05' W 093°20'0 0.0
2018-Jun-09 19:01N 30°05' W 093°20'0 0.0
2018-Jun-09 18:31N 30°05' W 093°20'0 0.0
2018-Jun-09 18:00N 30°05' W 093°20'0 0.0
2018-Jun-09 17:30N 30°05' W 093°20'0 0.0
2018-Jun-09 17:00N 30°05' W 093°20'0 0.0
2018-Jun-09 16:30N 30°05' W 093°20'0 0.0
2018-Jun-09 15:59N 30°05' W 093°20'0 0.0
2018-Jun-09 15:00N 30°05' W 093°20'0 0.0
2018-Jun-09 14:30N 30°05' W 093°20'0 0.0
2018-Jun-09 14:01N 30°05' W 093°20'0 0.0
2018-Jun-09 13:31N 30°05' W 093°20'0 0.0
2018-Jun-09 13:00N 30°05' W 093°20'0 0.0
2018-Jun-09 12:30N 30°05' W 093°20'0 0.0
2018-Jun-09 12:01N 30°05' W 093°20'0 0.0
2018-Jun-09 11:30N 30°05' W 093°20'0 0.0
2018-Jun-09 11:01N 30°05' W 093°20'0 0.0
2018-Jun-09 10:31N 30°05' W 093°20'0 0.0
2018-Jun-09 10:01N 30°05' W 093°20'0 0.0
2018-Jun-09 09:31N 30°05' W 093°20'0 0.0
2018-Jun-09 08:59N 30°05' W 093°20'0 0.0
2018-Jun-09 08:28N 30°05' W 093°20'0 0.0
2018-Jun-09 07:59N 30°05' W 093°20'0 0.0
2018-Jun-09 07:30N 30°05' W 093°20'0 0.0
2018-Jun-09 07:00N 30°05' W 093°20'0 0.0
2018-Jun-09 06:31N 30°05' W 093°20'0 0.0
2018-Jun-09 06:00N 30°05' W 093°20'0 0.0
2018-Jun-09 05:30N 30°05' W 093°20'0 0.0
2018-Jun-09 05:01N 30°05' W 093°20'0 0.0
2018-Jun-09 04:30N 30°05' W 093°20'0 0.0
2018-Jun-09 04:01N 30°05' W 093°20'0 0.0
2018-Jun-09 03:31N 30°05' W 093°20'0 0.0
2018-Jun-09 03:01N 30°05' W 093°20'0 0.0
2018-Jun-09 02:30N 30°05' W 093°20'0 0.0
2018-Jun-09 02:01N 30°05' W 093°20'0 0.0
2018-Jun-09 01:30N 30°05' W 093°20'0 0.0
2018-Jun-09 01:01N 30°05' W 093°20'0 0.0
2018-Jun-09 00:29N 30°05' W 093°20'0 0.0
2018-Jun-09 00:01N 30°05' W 093°20'0 0.1
2018-Jun-08 23:30N 30°05' W 093°20'1 2.9
2018-Jun-08 23:01N 30°06' W 093°19'0 0.1
2018-Jun-08 22:31N 30°06' W 093°19'1 2.8
2018-Jun-08 22:00N 30°05' W 093°18'1 2.4
2018-Jun-08 21:31N 30°05' W 093°16'0 0.0
2018-Jun-08 21:01N 30°05' W 093°16'0 0.0
2018-Jun-08 20:31N 30°05' W 093°16'0 0.0
2018-Jun-08 20:01N 30°05' W 093°16'0 0.0
2018-Jun-08 19:31N 30°05' W 093°16'0 0.0
2018-Jun-08 19:01N 30°05' W 093°16'0 0.0
2018-Jun-08 18:31N 30°05' W 093°16'0 0.1
2018-Jun-08 18:00N 30°04' W 093°16'0 0.0
2018-Jun-08 17:31N 30°04' W 093°16'0 0.1
2018-Jun-08 17:01N 30°04' W 093°16'0 0.0
2018-Jun-08 16:31N 30°05' W 093°16'0 0.0
2018-Jun-08 16:00N 30°04' W 093°16'0 0.0
2018-Jun-08 15:31N 30°04' W 093°16'0 0.0
2018-Jun-08 15:01N 30°04' W 093°16'0 0.0
2018-Jun-08 14:31N 30°04' W 093°16'0 0.0
2018-Jun-08 14:00N 30°04' W 093°16'0 0.1
2018-Jun-08 13:31N 30°04' W 093°16'0 0.0
2018-Jun-08 13:01N 30°04' W 093°16'0 0.0
2018-Jun-08 12:30N 30°05' W 093°16'0 0.0
2018-Jun-08 12:01N 30°04' W 093°16'0 0.7
2018-Jun-08 11:30N 30°04' W 093°16'1 1.5
2018-Jun-08 11:01N 30°04' W 093°16'0 0.2
2018-Jun-08 10:30N 30°03' W 093°16'0 0.0
2018-Jun-08 10:00N 30°03' W 093°16'0 0.0
2018-Jun-08 09:30N 30°03' W 093°16'0 0.0
2018-Jun-08 09:01N 30°03' W 093°16'0 0.0
2018-Jun-08 08:31N 30°03' W 093°16'0 0.0
2018-Jun-08 08:01N 30°03' W 093°16'0 0.0
2018-Jun-08 07:31N 30°03' W 093°16'0 0.0
2018-Jun-08 07:00N 30°03' W 093°16'0 0.0
2018-Jun-08 06:31N 30°03' W 093°16'0 0.0
2018-Jun-08 06:01N 30°03' W 093°16'0 0.0
2018-Jun-08 05:30N 30°03' W 093°16'1 1.2
2018-Jun-08 05:01N 30°03' W 093°16'2 3.1
2018-Jun-08 04:30N 30°02' W 093°15'2 4.0
2018-Jun-08 04:01N 30°00' W 093°13'1 1.2
2018-Jun-08 03:31N 29°60' W 093°13'0 0.0
2018-Jun-08 03:01N 29°60' W 093°13'0 0.0
2018-Jun-08 02:29N 29°60' W 093°13'0 0.0
2018-Jun-08 02:00N 29°60' W 093°13'0 0.0
2018-Jun-08 01:31N 29°60' W 093°13'0 0.0
2018-Jun-08 01:01N 29°60' W 093°13'0 0.0
2018-Jun-08 00:31N 29°60' W 093°13'0 0.0
2018-Jun-08 00:01N 29°60' W 093°13'0 0.0
2018-Jun-07 23:31N 29°60' W 093°13'0 0.0
2018-Jun-07 23:01N 29°60' W 093°13'0 0.0
2018-Jun-07 22:30N 29°60' W 093°13'0 0.0
2018-Jun-07 22:01N 29°60' W 093°13'0 0.0
2018-Jun-07 21:31N 29°60' W 093°13'0 0.0
2018-Jun-07 21:01N 29°60' W 093°13'0 0.0
2018-Jun-07 20:31N 29°60' W 093°13'0 0.0
2018-Jun-07 20:00N 29°60' W 093°13'0 0.0
2018-Jun-07 19:31N 29°60' W 093°13'0 0.0
2018-Jun-07 19:00N 29°60' W 093°13'0 0.0
2018-Jun-07 18:30N 29°60' W 093°13'0 0.0
2018-Jun-07 18:01N 29°60' W 093°13'0 0.0
2018-Jun-07 17:31N 29°60' W 093°13'0 0.0
2018-Jun-07 17:00N 29°60' W 093°13'1 2.9
2018-Jun-07 16:31N 29°58' W 093°12'0 0.0
2018-Jun-07 15:59N 29°58' W 093°12'0 0.0
2018-Jun-07 15:31N 29°58' W 093°12'0 0.0
2018-Jun-07 15:01N 29°58' W 093°12'0 0.0
2018-Jun-07 14:30N 29°58' W 093°12'0 0.0
2018-Jun-07 14:00N 29°58' W 093°12'0 0.0
2018-Jun-07 13:30N 29°58' W 093°12'0 0.1
2018-Jun-07 13:01N 29°58' W 093°12'3 5.2
2018-Jun-07 12:31N 29°56' W 093°10'3 5.9
2018-Jun-07 12:01N 29°56' W 093°07'3 5.1
2018-Jun-07 11:31N 29°56' W 093°04'3 5.9
2018-Jun-07 11:01N 29°56' W 093°00'3 5.7
2018-Jun-07 10:30N 29°56' W 092°57'24 5.2
2018-Jun-07 05:51N 29°54' W 092°29'2 6.2
2018-Jun-07 05:30N 29°53' W 092°27'3 5.9
2018-Jun-07 04:58N 29°53' W 092°23'3 5.5
2018-Jun-07 04:30N 29°51' W 092°21'3 5.7
2018-Jun-07 04:01N 29°50' W 092°18'3 5.5
2018-Jun-07 03:30N 29°48' W 092°15'2 4.1
2018-Jun-07 03:01N 29°47' W 092°13'1 2.3
2018-Jun-07 02:30N 29°47' W 092°12'1 1.4
2018-Jun-07 02:01N 29°47' W 092°11'0 0.0
2018-Jun-07 01:31N 29°47' W 092°11'0 0.0
2018-Jun-07 01:01N 29°47' W 092°11'0 0.0
2018-Jun-07 00:30N 29°47' W 092°11'0 0.0
2018-Jun-07 00:00N 29°47' W 092°11'0 0.0
2018-Jun-06 23:31N 29°47' W 092°11'0 0.9
2018-Jun-06 22:59N 29°47' W 092°11'2 4.8
2018-Jun-06 22:30N 29°47' W 092°08'0 0.7
2018-Jun-06 22:01N 29°47' W 092°08'0 0.0
2018-Jun-06 21:31N 29°47' W 092°08'0 0.0
2018-Jun-06 21:00N 29°47' W 092°08'0 0.0
2018-Jun-06 20:30N 29°47' W 092°08'0 0.0
2018-Jun-06 20:01N 29°47' W 092°08'0 0.0
2018-Jun-06 19:30N 29°47' W 092°08'0 0.0
2018-Jun-06 19:00N 29°47' W 092°08'1 2.1
2018-Jun-06 18:31N 29°48' W 092°07'3 5.9
2018-Jun-06 18:01N 29°49' W 092°03'3 7.0
2018-Jun-06 17:31N 29°50' W 091°60'3 6.8
2018-Jun-06 17:00N 29°51' W 091°56'  
Track history (hours):
 
Tides and Currents Weather Stations Pressure Air Temp Water Temp Dewpoint Dewpoint Depression Visibility Wind Speed Wind Dir Waves Ship Positions

Higman Mariner

Owner: Higman Barge Lines, Inc., Orange, TX. More information available from US FCC via Universal Licensing System and Coast Guard Vessel Documentation Center.

Last reported at 2018-Jun-14 22:15 UTC. Time now 2018-Jun-25 04:26 UTC.
Position N 29°33' W 090°24'.
Warning: this ship's position is 10 days out of date.

Length 205 m; draft 2.6 m.

Type: . MMSI: 367692430.

Date/timePositionNaut miles runAvg speedWind from/ knotsBaromVisibWave heightAir tempDewpointWater temp
2018-Jun-14 22:15N 29°33' W 090°24'3 6.3
2018-Jun-14 21:47N 29°33' W 090°28'2 6.5
2018-Jun-14 21:30N 29°34' W 090°30'3 6.2
2018-Jun-14 21:00N 29°34' W 090°33'3 5.4
2018-Jun-14 20:30N 29°35' W 090°36'3 5.6
2018-Jun-14 19:58N 29°36' W 090°39'2 4.5
2018-Jun-14 19:28N 29°37' W 090°42'6 2.6
2018-Jun-14 17:11N 29°32' W 090°46'1 6.9
2018-Jun-14 17:00N 29°32' W 090°47'4 7.1
2018-Jun-14 16:30N 29°32' W 090°52'4 7.1
2018-Jun-14 16:00N 29°34' W 090°55'54 4.3
2018-Jun-14 03:18N 29°51' W 091°55'2 5.3
2018-Jun-14 02:52N 29°50' W 091°57'2 5.1
2018-Jun-14 02:28N 29°50' W 091°60'3 5.8
2018-Jun-14 02:00N 29°49' W 092°02'3 5.3
2018-Jun-14 01:25N 29°48' W 092°06'10 3.8
2018-Jun-13 22:44N 29°49' W 092°18'1 4.7
2018-Jun-13 22:29N 29°50' W 092°18'3 5.0
2018-Jun-13 21:58N 29°51' W 092°21'2 4.5
2018-Jun-13 21:30N 29°53' W 092°23'2 4.6
2018-Jun-13 21:00N 29°53' W 092°25'3 5.1
2018-Jun-13 20:27N 29°54' W 092°29'30 4.3
2018-Jun-13 13:36N 29°56' W 093°03'1 4.2
2018-Jun-13 13:27N 29°56' W 093°04'2 3.7
2018-Jun-13 13:00N 29°56' W 093°05'2 4.7
2018-Jun-13 12:30N 29°56' W 093°08'2 4.2
2018-Jun-13 12:00N 29°57' W 093°10'2 3.4
2018-Jun-13 11:26N 29°58' W 093°12'2 3.8
2018-Jun-13 11:00N 29°60' W 093°13'12 0.3
2018-Jun-11 18:22N 30°11' W 093°19'0 0.0
2018-Jun-11 18:01N 30°11' W 093°19'0 0.0
2018-Jun-11 17:30N 30°11' W 093°19'0 0.0
2018-Jun-11 17:01N 30°11' W 093°19'0 0.0
2018-Jun-11 16:31N 30°11' W 093°19'0 0.0
2018-Jun-11 16:00N 30°11' W 093°19'0 0.1
2018-Jun-11 15:31N 30°11' W 093°19'0 1.0
2018-Jun-11 15:01N 30°11' W 093°19'3 6.9
2018-Jun-11 14:31N 30°07' W 093°20'2 4.4
2018-Jun-11 14:01N 30°05' W 093°20'0 0.0
2018-Jun-11 13:31N 30°05' W 093°20'0 0.0
2018-Jun-11 13:01N 30°05' W 093°20'0 0.0
2018-Jun-11 12:31N 30°05' W 093°20'0 0.0
2018-Jun-11 12:01N 30°05' W 093°20'0 0.0
2018-Jun-11 11:31N 30°05' W 093°20'0 0.0
2018-Jun-11 11:01N 30°05' W 093°20'0 0.0
2018-Jun-11 10:30N 30°05' W 093°20'0 0.0
2018-Jun-11 09:56N 30°05' W 093°20'0 0.0
2018-Jun-11 09:31N 30°05' W 093°20'0 0.0
2018-Jun-11 09:01N 30°05' W 093°20'0 0.0
2018-Jun-11 08:31N 30°05' W 093°20'0 0.0
2018-Jun-11 08:01N 30°05' W 093°20'0 0.0
2018-Jun-11 07:31N 30°05' W 093°20'0 0.0
2018-Jun-11 07:01N 30°05' W 093°20'0 0.0
2018-Jun-11 06:31N 30°05' W 093°20'0 0.0
2018-Jun-11 06:00N 30°05' W 093°20'0 0.0
2018-Jun-11 05:31N 30°05' W 093°20'0 0.0
2018-Jun-11 04:59N 30°05' W 093°20'0 0.0
2018-Jun-11 04:31N 30°05' W 093°20'0 0.0
2018-Jun-11 04:01N 30°05' W 093°20'0 0.0
2018-Jun-11 03:30N 30°05' W 093°20'0 0.0
2018-Jun-11 02:57N 30°05' W 093°20'0 0.0
2018-Jun-11 02:29N 30°05' W 093°20'0 0.0
2018-Jun-11 02:00N 30°05' W 093°20'0 0.0
2018-Jun-11 01:31N 30°05' W 093°20'0 0.0
2018-Jun-11 01:01N 30°05' W 093°20'0 0.0
2018-Jun-11 00:31N 30°05' W 093°20'0 0.0
2018-Jun-11 00:01N 30°05' W 093°20'0 0.0
2018-Jun-10 23:29N 30°05' W 093°20'0 0.2
2018-Jun-10 22:59N 30°05' W 093°20'0 0.2
2018-Jun-10 22:31N 30°05' W 093°20'0 0.1
2018-Jun-10 22:00N 30°05' W 093°20'0 0.0
2018-Jun-10 21:29N 30°05' W 093°20'0 0.0
2018-Jun-10 21:00N 30°05' W 093°20'0 0.0
2018-Jun-10 20:31N 30°05' W 093°20'0 0.0
2018-Jun-10 20:01N 30°05' W 093°20'0 0.0
2018-Jun-10 19:31N 30°05' W 093°20'0 0.5
2018-Jun-10 19:01N 30°05' W 093°20'0 0.0
2018-Jun-10 18:31N 30°05' W 093°20'0 0.5
2018-Jun-10 18:01N 30°05' W 093°20'0 0.0
2018-Jun-10 17:31N 30°05' W 093°20'0 0.0
2018-Jun-10 17:01N 30°05' W 093°20'0 0.0
2018-Jun-10 16:31N 30°05' W 093°20'0 0.0
2018-Jun-10 16:01N 30°05' W 093°20'0 0.0
2018-Jun-10 15:31N 30°05' W 093°20'0 0.0
2018-Jun-10 15:01N 30°05' W 093°20'0 0.0
2018-Jun-10 14:00N 30°05' W 093°20'0 0.0
2018-Jun-10 13:29N 30°05' W 093°20'0 0.0
2018-Jun-10 13:01N 30°05' W 093°20'0 0.0
2018-Jun-10 12:31N 30°05' W 093°20'0 0.0
2018-Jun-10 11:59N 30°05' W 093°20'0 0.0
2018-Jun-10 11:30N 30°05' W 093°20'0 0.0
2018-Jun-10 11:01N 30°05' W 093°20'0 0.0
2018-Jun-10 10:30N 30°05' W 093°20'0 0.0
2018-Jun-10 10:00N 30°05' W 093°20'0 0.0
2018-Jun-10 09:31N 30°05' W 093°20'0 0.0
2018-Jun-10 09:00N 30°05' W 093°20'0 0.0
2018-Jun-10 08:30N 30°05' W 093°20'0 0.0
2018-Jun-10 08:01N 30°05' W 093°20'0 0.0
2018-Jun-10 07:31N 30°05' W 093°20'0 0.0
2018-Jun-10 07:00N 30°05' W 093°20'0 0.0
2018-Jun-10 06:30N 30°05' W 093°20'0 0.0
2018-Jun-10 06:01N 30°05' W 093°20'0 0.0
2018-Jun-10 05:31N 30°05' W 093°20'0 0.0
2018-Jun-10 05:01N 30°05' W 093°20'0 0.0
2018-Jun-10 04:30N 30°05' W 093°20'0 0.0
2018-Jun-10 04:00N 30°05' W 093°20'0 0.0
2018-Jun-10 03:30N 30°05' W 093°20'0 0.0
2018-Jun-10 03:00N 30°05' W 093°20'0 0.0
2018-Jun-10 02:31N 30°05' W 093°20'0 0.0
2018-Jun-10 02:01N 30°05' W 093°20'0 0.0
2018-Jun-10 01:31N 30°05' W 093°20'0 0.0
2018-Jun-10 01:01N 30°05' W 093°20'0 0.0
2018-Jun-10 00:30N 30°05' W 093°20'0 0.0
2018-Jun-10 00:01N 30°05' W 093°20'0 0.0
2018-Jun-09 23:29N 30°05' W 093°20'0 0.0
2018-Jun-09 23:00N 30°05' W 093°20'0 0.0
2018-Jun-09 22:30N 30°05' W 093°20'0 0.0
2018-Jun-09 22:01N 30°05' W 093°20'0 0.0
2018-Jun-09 21:31N 30°05' W 093°20'0 0.0
2018-Jun-09 21:01N 30°05' W 093°20'0 0.0
2018-Jun-09 20:30N 30°05' W 093°20'0 0.0
2018-Jun-09 20:01N 30°05' W 093°20'0 0.0
2018-Jun-09 19:30N 30°05' W 093°20'0 0.0
2018-Jun-09 19:01N 30°05' W 093°20'0 0.0
2018-Jun-09 18:31N 30°05' W 093°20'0 0.0
2018-Jun-09 18:00N 30°05' W 093°20'0 0.0
2018-Jun-09 17:30N 30°05' W 093°20'0 0.0
2018-Jun-09 17:00N 30°05' W 093°20'0 0.0
2018-Jun-09 16:30N 30°05' W 093°20'0 0.0
2018-Jun-09 15:59N 30°05' W 093°20'0 0.0
2018-Jun-09 15:00N 30°05' W 093°20'0 0.0
2018-Jun-09 14:30N 30°05' W 093°20'0 0.0
2018-Jun-09 14:01N 30°05' W 093°20'0 0.0
2018-Jun-09 13:31N 30°05' W 093°20'0 0.0
2018-Jun-09 13:00N 30°05' W 093°20'0 0.0
2018-Jun-09 12:30N 30°05' W 093°20'0 0.0
2018-Jun-09 12:01N 30°05' W 093°20'0 0.0
2018-Jun-09 11:30N 30°05' W 093°20'0 0.0
2018-Jun-09 11:01N 30°05' W 093°20'0 0.0
2018-Jun-09 10:31N 30°05' W 093°20'0 0.0
2018-Jun-09 10:01N 30°05' W 093°20'0 0.0
2018-Jun-09 09:31N 30°05' W 093°20'0 0.0
2018-Jun-09 08:59N 30°05' W 093°20'0 0.0
2018-Jun-09 08:28N 30°05' W 093°20'0 0.0
2018-Jun-09 07:59N 30°05' W 093°20'0 0.0
2018-Jun-09 07:30N 30°05' W 093°20'0 0.0
2018-Jun-09 07:00N 30°05' W 093°20'0 0.0
2018-Jun-09 06:31N 30°05' W 093°20'0 0.0
2018-Jun-09 06:00N 30°05' W 093°20'0 0.0
2018-Jun-09 05:30N 30°05' W 093°20'0 0.0
2018-Jun-09 05:01N 30°05' W 093°20'0 0.0
2018-Jun-09 04:30N 30°05' W 093°20'0 0.0
2018-Jun-09 04:01N 30°05' W 093°20'0 0.0
2018-Jun-09 03:31N 30°05' W 093°20'0 0.0
2018-Jun-09 03:01N 30°05' W 093°20'0 0.0
2018-Jun-09 02:30N 30°05' W 093°20'0 0.0
2018-Jun-09 02:01N 30°05' W 093°20'0 0.0
2018-Jun-09 01:30N 30°05' W 093°20'0 0.0
2018-Jun-09 01:01N 30°05' W 093°20'0 0.0
2018-Jun-09 00:29N 30°05' W 093°20'0 0.0
2018-Jun-09 00:01N 30°05' W 093°20'0 0.1
2018-Jun-08 23:30N 30°05' W 093°20'1 2.9
2018-Jun-08 23:01N 30°06' W 093°19'0 0.1
2018-Jun-08 22:31N 30°06' W 093°19'1 2.8
2018-Jun-08 22:00N 30°05' W 093°18'1 2.4
2018-Jun-08 21:31N 30°05' W 093°16'0 0.0
2018-Jun-08 21:01N 30°05' W 093°16'0 0.0
2018-Jun-08 20:31N 30°05' W 093°16'0 0.0
2018-Jun-08 20:01N 30°05' W 093°16'0 0.0
2018-Jun-08 19:31N 30°05' W 093°16'0 0.0
2018-Jun-08 19:01N 30°05' W 093°16'0 0.0
2018-Jun-08 18:31N 30°05' W 093°16'0 0.1
2018-Jun-08 18:00N 30°04' W 093°16'0 0.0
2018-Jun-08 17:31N 30°04' W 093°16'0 0.1
2018-Jun-08 17:01N 30°04' W 093°16'0 0.0
2018-Jun-08 16:31N 30°05' W 093°16'0 0.0
2018-Jun-08 16:00N 30°04' W 093°16'0 0.0
2018-Jun-08 15:31N 30°04' W 093°16'0 0.0
2018-Jun-08 15:01N 30°04' W 093°16'0 0.0
2018-Jun-08 14:31N 30°04' W 093°16'0 0.0
2018-Jun-08 14:00N 30°04' W 093°16'0 0.1
2018-Jun-08 13:31N 30°04' W 093°16'0 0.0
2018-Jun-08 13:01N 30°04' W 093°16'0 0.0
2018-Jun-08 12:30N 30°05' W 093°16'0 0.0
2018-Jun-08 12:01N 30°04' W 093°16'0 0.7
2018-Jun-08 11:30N 30°04' W 093°16'1 1.5
2018-Jun-08 11:01N 30°04' W 093°16'0 0.2
2018-Jun-08 10:30N 30°03' W 093°16'0 0.0
2018-Jun-08 10:00N 30°03' W 093°16'0 0.0
2018-Jun-08 09:30N 30°03' W 093°16'0 0.0
2018-Jun-08 09:01N 30°03' W 093°16'0 0.0
2018-Jun-08 08:31N 30°03' W 093°16'0 0.0
2018-Jun-08 08:01N 30°03' W 093°16'0 0.0
2018-Jun-08 07:31N 30°03' W 093°16'0 0.0
2018-Jun-08 07:00N 30°03' W 093°16'0 0.0
2018-Jun-08 06:31N 30°03' W 093°16'0 0.0
2018-Jun-08 06:01N 30°03' W 093°16'0 0.0
2018-Jun-08 05:30N 30°03' W 093°16'1 1.2
2018-Jun-08 05:01N 30°03' W 093°16'2 3.1
2018-Jun-08 04:30N 30°02' W 093°15'2 4.0
2018-Jun-08 04:01N 30°00' W 093°13'1 1.2
2018-Jun-08 03:31N 29°60' W 093°13'0 0.0
2018-Jun-08 03:01N 29°60' W 093°13'0 0.0
2018-Jun-08 02:29N 29°60' W 093°13'0 0.0
2018-Jun-08 02:00N 29°60' W 093°13'0 0.0
2018-Jun-08 01:31N 29°60' W 093°13'0 0.0
2018-Jun-08 01:01N 29°60' W 093°13'0 0.0
2018-Jun-08 00:31N 29°60' W 093°13'0 0.0
2018-Jun-08 00:01N 29°60' W 093°13'0 0.0
2018-Jun-07 23:31N 29°60' W 093°13'0 0.0
2018-Jun-07 23:01N 29°60' W 093°13'0 0.0
2018-Jun-07 22:30N 29°60' W 093°13'0 0.0
2018-Jun-07 22:01N 29°60' W 093°13'0 0.0
2018-Jun-07 21:31N 29°60' W 093°13'0 0.0
2018-Jun-07 21:01N 29°60' W 093°13'0 0.0
2018-Jun-07 20:31N 29°60' W 093°13'0 0.0
2018-Jun-07 20:00N 29°60' W 093°13'0 0.0
2018-Jun-07 19:31N 29°60' W 093°13'0 0.0
2018-Jun-07 19:00N 29°60' W 093°13'0 0.0
2018-Jun-07 18:30N 29°60' W 093°13'0 0.0
2018-Jun-07 18:01N 29°60' W 093°13'0 0.0
2018-Jun-07 17:31N 29°60' W 093°13'0 0.0
2018-Jun-07 17:00N 29°60' W 093°13'1 2.9
2018-Jun-07 16:31N 29°58' W 093°12'0 0.0
2018-Jun-07 15:59N 29°58' W 093°12'0 0.0
2018-Jun-07 15:31N 29°58' W 093°12'0 0.0
2018-Jun-07 15:01N 29°58' W 093°12'0 0.0
2018-Jun-07 14:30N 29°58' W 093°12'0 0.0
2018-Jun-07 14:00N 29°58' W 093°12'0 0.0
2018-Jun-07 13:30N 29°58' W 093°12'0 0.1
2018-Jun-07 13:01N 29°58' W 093°12'3 5.2
2018-Jun-07 12:31N 29°56' W 093°10'3 5.9
2018-Jun-07 12:01N 29°56' W 093°07'3 5.1
2018-Jun-07 11:31N 29°56' W 093°04'3 5.9
2018-Jun-07 11:01N 29°56' W 093°00'3 5.7
2018-Jun-07 10:30N 29°56' W 092°57'24 5.2
2018-Jun-07 05:51N 29°54' W 092°29'2 6.2
2018-Jun-07 05:30N 29°53' W 092°27'3 5.9
2018-Jun-07 04:58N 29°53' W 092°23'3 5.5
2018-Jun-07 04:30N 29°51' W 092°21'3 5.7
2018-Jun-07 04:01N 29°50' W 092°18'3 5.5
2018-Jun-07 03:30N 29°48' W 092°15'2 4.1
2018-Jun-07 03:01N 29°47' W 092°13'1 2.3
2018-Jun-07 02:30N 29°47' W 092°12'1 1.4
2018-Jun-07 02:01N 29°47' W 092°11'0 0.0
2018-Jun-07 01:31N 29°47' W 092°11'0 0.0
2018-Jun-07 01:01N 29°47' W 092°11'0 0.0
2018-Jun-07 00:30N 29°47' W 092°11'0 0.0
2018-Jun-07 00:00N 29°47' W 092°11'0 0.0
2018-Jun-06 23:31N 29°47' W 092°11'0 0.9
2018-Jun-06 22:59N 29°47' W 092°11'2 4.8
2018-Jun-06 22:30N 29°47' W 092°08'0 0.7
2018-Jun-06 22:01N 29°47' W 092°08'0 0.0
2018-Jun-06 21:31N 29°47' W 092°08'0 0.0
2018-Jun-06 21:00N 29°47' W 092°08'0 0.0
2018-Jun-06 20:30N 29°47' W 092°08'0 0.0
2018-Jun-06 20:01N 29°47' W 092°08'0 0.0
2018-Jun-06 19:30N 29°47' W 092°08'0 0.0
2018-Jun-06 19:00N 29°47' W 092°08'1 2.1
2018-Jun-06 18:31N 29°48' W 092°07'3 5.9
2018-Jun-06 18:01N 29°49' W 092°03'3 7.0
2018-Jun-06 17:31N 29°50' W 091°60'3 6.8
2018-Jun-06 17:00N 29°51' W 091°56'  

Dump ship's entire track history